Time;durP1;ratioP1;P1;durP2;ratioP2;P2;SDS_P1;SDS_P2;PMS_P1;PMS_P2;Temp;Humidity;BMP_temperature;BMP_pressure;BME280_temperature;BME280_humidity;BME280_pressure;Samples;Min_cycle;Max_cycle;Signal;HPM_P1;HPM_P2
2022/04/08 00:01:54;;;;;;;8.70;1.77;;;;;;;;;;5056888;28;20432;-84
2022/04/08 00:04:20;;;;;;;13.40;1.83;;;;;;;;;;5057929;28;20043;-85
2022/04/08 00:06:46;;;;;;;11.55;1.95;;;;;;;;;;5061644;28;20036;-85
2022/04/08 00:09:12;;;;;;;12.25;1.77;;;;;;;;;;5075025;28;20047;-84
2022/04/08 00:11:38;;;;;;;13.00;2.28;;;;;;;;;;5048983;28;20126;-85
2022/04/08 00:14:04;;;;;;;9.27;1.38;;;;;;;;;;5074551;28;20048;-83
2022/04/08 00:16:31;;;;;;;10.75;1.58;;;;;;;;;;5043853;28;20052;-83
2022/04/08 00:18:57;;;;;;;12.05;1.83;;;;;;;;;;5037715;28;20106;-85
2022/04/08 00:21:27;;;;;;;10.75;1.45;;;;;;;;;;5059764;28;20047;-84
2022/04/08 00:23:53;;;;;;;5.32;1.17;;;;;;;;;;5042616;28;20041;-85
2022/04/08 00:26:19;;;;;;;3.58;0.90;;;;;;;;;;5052629;28;20048;-80
2022/04/08 00:28:45;;;;;;;6.65;0.95;;;;;;;;;;5041737;28;20043;-83
2022/04/08 00:31:12;;;;;;;5.15;1.13;;;;;;;;;;5042027;28;20428;-80
2022/04/08 00:33:41;;;;;;;6.25;1.30;;;;;;;;;;5060474;28;20032;-82
2022/04/08 00:36:07;;;;;;;11.40;1.30;;;;;;;;;;5055932;28;20113;-85
2022/04/08 00:38:33;;;;;;;9.73;2.17;;;;;;;;;;5059648;28;20052;-80
2022/04/08 00:40:59;;;;;;;13.35;1.33;;;;;;;;;;5033477;28;20045;-83
2022/04/08 00:43:33;;;;;;;11.48;1.65;;;;;;;;;;5057689;28;20511;-83
2022/04/08 00:46:00;;;;;;;12.85;2.72;;;;;;;;;;5057484;28;20190;-85
2022/04/08 00:48:26;;;;;;;12.38;2.25;;;;;;;;;;5056820;28;20041;-85
2022/04/08 00:50:52;;;;;;;9.32;1.35;;;;;;;;;;5058439;28;20048;-85
2022/04/08 00:53:18;;;;;;;15.50;1.98;;;;;;;;;;5056275;28;20040;-83
2022/04/08 00:55:44;;;;;;;14.70;1.98;;;;;;;;;;5041701;28;20044;-84
2022/04/08 00:58:10;;;;;;;13.80;2.70;;;;;;;;;;5058381;28;20036;-83
2022/04/08 01:00:37;;;;;;;17.73;2.10;;;;;;;;;;5008157;28;20034;-84
2022/04/08 01:03:04;;;;;;;13.30;1.90;;;;;;;;;;5057776;28;20047;-83
2022/04/08 01:05:30;;;;;;;18.75;2.80;;;;;;;;;;5058713;28;20504;-84
2022/04/08 01:07:56;;;;;;;23.20;2.60;;;;;;;;;;5048585;28;20037;-86
2022/04/08 01:10:22;;;;;;;17.88;3.35;;;;;;;;;;5057565;28;20040;-82
2022/04/08 01:12:49;;;;;;;23.45;2.38;;;;;;;;;;5075482;28;20065;-84
2022/04/08 01:15:17;;;;;;;11.05;1.95;;;;;;;;;;5056726;28;20416;-81
2022/04/08 01:17:44;;;;;;;12.55;1.80;;;;;;;;;;5057321;28;20553;-83
2022/04/08 01:20:10;;;;;;;12.18;2.35;;;;;;;;;;5055434;28;20040;-83
2022/04/08 01:22:36;;;;;;;10.27;2.10;;;;;;;;;;5057022;28;20056;-82
2022/04/08 01:25:03;;;;;;;19.23;2.67;;;;;;;;;;5057437;28;20127;-85
2022/04/08 01:27:30;;;;;;;10.77;2.60;;;;;;;;;;5056585;28;20076;-83
2022/04/08 01:29:59;;;;;;;18.73;2.50;;;;;;;;;;5060391;28;20072;-82
2022/04/08 01:32:25;;;;;;;15.10;1.58;;;;;;;;;;5057057;28;20522;-84
2022/04/08 01:34:52;;;;;;;13.85;2.08;;;;;;;;;;5057816;28;20037;-81
2022/04/08 01:37:19;;;;;;;16.10;2.70;;;;;;;;;;5059026;28;20037;-82
2022/04/08 01:39:45;;;;;;;15.23;2.35;;;;;;;;;;5057135;28;20133;-84
2022/04/08 01:42:11;;;;;;;15.77;2.30;;;;;;;;;;5055247;28;20044;-83
2022/04/08 01:44:37;;;;;;;23.55;2.72;;;;;;;;;;5059928;28;20044;-85
2022/04/08 01:47:04;;;;;;;22.77;2.88;;;;;;;;;;5057931;28;20499;-85
2022/04/08 01:49:30;;;;;;;18.33;2.33;;;;;;;;;;5057054;28;20036;-85
2022/04/08 01:51:56;;;;;;;18.75;2.72;;;;;;;;;;5058992;28;20036;-84
2022/04/08 01:54:22;;;;;;;18.30;2.50;;;;;;;;;;5055488;28;20189;-85
2022/04/08 01:56:48;;;;;;;16.85;3.38;;;;;;;;;;5052220;28;20685;-83
2022/04/08 01:59:15;;;;;;;14.23;2.35;;;;;;;;;;5059371;28;20052;-81
2022/04/08 02:01:41;;;;;;;21.42;2.22;;;;;;;;;;5057243;28;20427;-82
2022/04/08 02:04:07;;;;;;;22.30;2.58;;;;;;;;;;5057606;28;20036;-84
2022/04/08 02:06:35;;;;;;;23.80;3.70;;;;;;;;;;5055755;28;20025;-82
2022/04/08 02:09:01;;;;;;;18.33;2.15;;;;;;;;;;5055599;28;20500;-85
2022/04/08 02:11:27;;;;;;;26.88;3.13;;;;;;;;;;5056935;28;20040;-83
2022/04/08 02:13:54;;;;;;;15.15;2.53;;;;;;;;;;5062430;28;20066;-82
2022/04/08 02:16:20;;;;;;;15.63;2.50;;;;;;;;;;5078177;28;20048;-83
2022/04/08 02:18:46;;;;;;;25.25;2.15;;;;;;;;;;5055561;28;20141;-82
2022/04/08 02:21:19;;;;;;;17.90;2.75;;;;;;;;;;5076287;28;20036;-86
2022/04/08 02:23:46;;;;;;;20.75;2.95;;;;;;;;;;5078026;28;20040;-82
2022/04/08 02:26:13;;;;;;;12.85;2.58;;;;;;;;;;5059250;28;20492;-85
2022/04/08 02:28:39;;;;;;;14.70;2.47;;;;;;;;;;5080804;28;20078;-84
2022/04/08 02:31:06;;;;;;;22.58;2.38;;;;;;;;;;5091635;28;20035;-81
2022/04/08 02:33:32;;;;;;;28.33;2.70;;;;;;;;;;5093079;28;20036;-84
2022/04/08 02:35:58;;;;;;;18.55;2.60;;;;;;;;;;5063033;28;20040;-82
2022/04/08 02:38:24;;;;;;;21.05;2.95;;;;;;;;;;5057810;28;20044;-83
2022/04/08 02:40:50;;;;;;;17.52;2.72;;;;;;;;;;5079053;28;20503;-80
2022/04/08 02:43:16;;;;;;;27.98;3.35;;;;;;;;;;5060933;28;20523;-84
2022/04/08 02:45:42;;;;;;;18.00;2.88;;;;;;;;;;5078956;28;20032;-83
2022/04/08 02:48:08;;;;;;;15.23;2.92;;;;;;;;;;5086166;28;20032;-85
2022/04/08 02:50:34;;;;;;;20.10;2.25;;;;;;;;;;5045757;28;20407;-85
2022/04/08 02:53:00;;;;;;;11.13;1.70;;;;;;;;;;5082699;28;20494;-83
2022/04/08 02:55:26;;;;;;;20.65;2.88;;;;;;;;;;5082039;28;20542;-84
2022/04/08 02:57:52;;;;;;;17.25;2.78;;;;;;;;;;5080206;28;20495;-82
2022/04/08 03:00:20;;;;;;;30.00;2.65;;;;;;;;;;5078641;28;20588;-85
2022/04/08 03:02:47;;;;;;;17.48;2.50;;;;;;;;;;5063831;28;20119;-84
2022/04/08 03:05:14;;;;;;;16.17;2.05;;;;;;;;;;5078093;28;20055;-82
2022/04/08 03:07:40;;;;;;;32.55;6.10;;;;;;;;;;5079181;28;20046;-84
2022/04/08 03:10:07;;;;;;;20.00;2.10;;;;;;;;;;5080850;28;20058;-86
2022/04/08 03:12:33;;;;;;;22.92;2.08;;;;;;;;;;5080163;28;21169;-82
2022/04/08 03:14:59;;;;;;;19.77;2.50;;;;;;;;;;5065812;28;20085;-83
2022/04/08 03:17:26;;;;;;;15.40;2.92;;;;;;;;;;5081102;28;20048;-85
2022/04/08 03:19:52;;;;;;;13.68;2.13;;;;;;;;;;5087156;28;20071;-85
2022/04/08 03:22:20;;;;;;;10.68;1.85;;;;;;;;;;5092307;28;20090;-86
2022/04/08 03:24:49;;;;;;;8.13;1.15;;;;;;;;;;5101523;28;20039;-85
2022/04/08 03:27:16;;;;;;;4.10;1.15;;;;;;;;;;5067537;28;20543;-86
2022/04/08 03:29:42;;;;;;;5.20;0.90;;;;;;;;;;5062131;28;20787;-84
2022/04/08 03:32:08;;;;;;;4.15;1.48;;;;;;;;;;5080366;28;20072;-83
2022/04/08 03:34:34;;;;;;;2.58;0.80;;;;;;;;;;5081982;28;20051;-84
2022/04/08 03:37:01;;;;;;;2.58;0.93;;;;;;;;;;5048555;28;20036;-80
2022/04/08 03:39:27;;;;;;;5.75;1.02;;;;;;;;;;5060596;28;20450;-82
2022/04/08 03:41:53;;;;;;;4.00;1.17;;;;;;;;;;5075252;28;20450;-81
2022/04/08 03:44:20;;;;;;;6.18;0.98;;;;;;;;;;5079279;28;20132;-84
2022/04/08 03:46:48;;;;;;;5.93;1.20;;;;;;;;;;5080247;28;20052;-80
2022/04/08 03:49:14;;;;;;;10.57;1.88;;;;;;;;;;5063772;28;20036;-84
2022/04/08 03:51:43;;;;;;;6.72;1.95;;;;;;;;;;5076711;28;20044;-80
2022/04/08 03:54:10;;;;;;;6.45;1.10;;;;;;;;;;5083149;28;20170;-83
2022/04/08 03:56:36;;;;;;;11.20;1.33;;;;;;;;;;5065953;28;20044;-81
2022/04/08 03:59:02;;;;;;;6.68;1.50;;;;;;;;;;5080981;28;20089;-81
2022/04/08 04:01:28;;;;;;;5.28;1.30;;;;;;;;;;5064423;28;20138;-80
2022/04/08 04:03:55;;;;;;;6.30;1.58;;;;;;;;;;5043152;28;20040;-86
2022/04/08 04:06:21;;;;;;;9.15;2.45;;;;;;;;;;5062442;28;20047;-83
2022/04/08 04:08:47;;;;;;;10.63;1.52;;;;;;;;;;5077794;28;20071;-84
2022/04/08 04:11:15;;;;;;;6.38;1.70;;;;;;;;;;5078618;28;20035;-85
2022/04/08 04:13:41;;;;;;;13.13;2.45;;;;;;;;;;5078436;28;20032;-85
2022/04/08 04:16:07;;;;;;;22.05;4.22;;;;;;;;;;5080550;28;20052;-86
2022/04/08 04:18:34;;;;;;;12.82;1.98;;;;;;;;;;5062011;28;20073;-87
2022/04/08 04:21:00;;;;;;;12.55;1.90;;;;;;;;;;5046395;28;20547;-83
2022/04/08 04:23:26;;;;;;;6.80;1.65;;;;;;;;;;5080060;28;20042;-88
2022/04/08 04:25:52;;;;;;;3.13;1.30;;;;;;;;;;5079020;28;21811;-86
2022/04/08 04:28:18;;;;;;;15.85;2.30;;;;;;;;;;5032043;28;20032;-84
2022/04/08 04:30:44;;;;;;;9.00;1.63;;;;;;;;;;5080348;28;20048;-83
2022/04/08 04:33:11;;;;;;;14.75;2.08;;;;;;;;;;5081310;28;20051;-84
2022/04/08 04:35:38;;;;;;;11.80;2.22;;;;;;;;;;5078910;28;20052;-85
2022/04/08 04:38:04;;;;;;;15.63;2.72;;;;;;;;;;5080858;28;20073;-82
2022/04/08 04:40:30;;;;;;;7.82;1.83;;;;;;;;;;5077275;28;20036;-83
2022/04/08 04:42:56;;;;;;;8.85;1.83;;;;;;;;;;5082570;28;20078;-81
2022/04/08 04:45:23;;;;;;;7.00;1.88;;;;;;;;;;5062138;28;20061;-82
2022/04/08 04:47:49;;;;;;;14.25;3.65;;;;;;;;;;5083032;28;20053;-85
2022/04/08 04:50:15;;;;;;;8.82;1.45;;;;;;;;;;5052801;28;20032;-84
2022/04/08 04:52:41;;;;;;;9.45;1.77;;;;;;;;;;5056777;28;20554;-85
2022/04/08 04:55:13;;;;;;;9.75;1.80;;;;;;;;;;5082302;28;20376;-85
2022/04/08 04:57:40;;;;;;;10.48;2.35;;;;;;;;;;5079400;28;20052;-86
2022/04/08 05:00:09;;;;;;;6.85;1.95;;;;;;;;;;5082056;28;20080;-83
2022/04/08 05:02:36;;;;;;;9.95;1.83;;;;;;;;;;5079144;28;20048;-86
2022/04/08 05:05:02;;;;;;;4.40;1.08;;;;;;;;;;5078794;28;20399;-85
2022/04/08 05:07:28;;;;;;;3.15;1.20;;;;;;;;;;5059469;28;20079;-82
2022/04/08 05:09:54;;;;;;;6.00;1.10;;;;;;;;;;5075202;28;20040;-83
2022/04/08 05:12:20;;;;;;;9.63;1.65;;;;;;;;;;5080923;28;20432;-85
2022/04/08 05:14:50;;;;;;;6.63;1.20;;;;;;;;;;5028075;28;20095;-84
2022/04/08 05:17:16;;;;;;;4.60;1.27;;;;;;;;;;5082769;28;20066;-86
2022/04/08 05:19:42;;;;;;;7.82;1.60;;;;;;;;;;5083816;28;20032;-84
2022/04/08 05:22:08;;;;;;;6.45;1.40;;;;;;;;;;5080964;28;20096;-83
2022/04/08 05:24:34;;;;;;;6.30;1.67;;;;;;;;;;5080754;28;20453;-84
2022/04/08 05:27:00;;;;;;;5.18;1.48;;;;;;;;;;5080459;28;20055;-82
2022/04/08 05:29:27;;;;;;;4.05;1.52;;;;;;;;;;5078780;28;20044;-83
2022/04/08 05:31:53;;;;;;;6.40;1.85;;;;;;;;;;5087832;28;20036;-83
2022/04/08 05:34:20;;;;;;;4.13;1.30;;;;;;;;;;5095169;28;20036;-86
2022/04/08 05:36:46;;;;;;;7.80;1.38;;;;;;;;;;5103700;28;20043;-82
2022/04/08 05:39:12;;;;;;;3.92;1.05;;;;;;;;;;5089935;28;20040;-84
2022/04/08 05:41:38;;;;;;;5.70;1.60;;;;;;;;;;5086341;28;20047;-82
2022/04/08 05:44:05;;;;;;;10.85;1.40;;;;;;;;;;5090616;28;20054;-83
2022/04/08 05:46:31;;;;;;;3.67;1.63;;;;;;;;;;5062394;28;20101;-82
2022/04/08 05:48:57;;;;;;;10.30;2.08;;;;;;;;;;5081786;28;20044;-81
2022/04/08 05:51:23;;;;;;;9.95;2.10;;;;;;;;;;5080613;28;20036;-82
2022/04/08 05:53:49;;;;;;;12.73;2.20;;;;;;;;;;5082660;28;20395;-85
2022/04/08 05:56:16;;;;;;;10.63;2.20;;;;;;;;;;5085041;28;20036;-85
2022/04/08 05:58:42;;;;;;;11.57;2.85;;;;;;;;;;5085177;28;20526;-83
2022/04/08 06:01:08;;;;;;;12.48;2.50;;;;;;;;;;5086641;28;20032;-82
2022/04/08 06:03:34;;;;;;;11.10;2.38;;;;;;;;;;5045238;28;20043;-84
2022/04/08 06:06:00;;;;;;;11.40;2.25;;;;;;;;;;5081203;28;20048;-84
2022/04/08 06:08:26;;;;;;;8.57;2.55;;;;;;;;;;5078536;28;20044;-86
2022/04/08 06:10:56;;;;;;;9.13;2.95;;;;;;;;;;5063485;28;20112;-83
2022/04/08 06:13:24;;;;;;;10.50;2.50;;;;;;;;;;5077681;28;20056;-86
2022/04/08 06:15:55;;;;;;;10.98;2.88;;;;;;;;;;5079042;28;20078;-86
2022/04/08 06:18:21;;;;;;;11.02;2.63;;;;;;;;;;5076651;28;20114;-84
2022/04/08 06:20:47;;;;;;;14.27;2.40;;;;;;;;;;5079848;28;20546;-85
2022/04/08 06:23:14;;;;;;;10.55;2.53;;;;;;;;;;5080141;28;20055;-82
2022/04/08 06:25:40;;;;;;;8.90;2.25;;;;;;;;;;5084778;28;20046;-85
2022/04/08 06:28:07;;;;;;;11.35;2.25;;;;;;;;;;5053553;28;20883;-84
2022/04/08 06:30:34;;;;;;;9.35;2.35;;;;;;;;;;5087918;28;20109;-84
2022/04/08 06:33:01;;;;;;;6.50;2.05;;;;;;;;;;5090985;28;20040;-85
2022/04/08 06:35:27;;;;;;;10.00;2.30;;;;;;;;;;5088378;28;20040;-84
2022/04/08 06:38:14;;;;;;;11.85;2.25;;;;;;;;;;5088404;28;20388;-85
2022/04/08 06:40:40;;;;;;;8.25;1.95;;;;;;;;;;5089072;28;20044;-85
2022/04/08 06:43:07;;;;;;;6.20;1.98;;;;;;;;;;5088218;28;20047;-86
2022/04/08 06:45:33;;;;;;;11.40;2.30;;;;;;;;;;5088382;28;20051;-85
2022/04/08 06:47:59;;;;;;;11.63;2.30;;;;;;;;;;5088386;28;20044;-85
2022/04/08 06:50:33;;;;;;;11.35;2.25;;;;;;;;;;5089019;28;20056;-84
2022/04/08 06:53:08;;;;;;;7.30;2.40;;;;;;;;;;5087252;28;20074;-86
2022/04/08 06:55:34;;;;;;;6.25;1.90;;;;;;;;;;5086279;28;20411;-83
2022/04/08 06:58:04;;;;;;;9.25;2.25;;;;;;;;;;5088587;28;20029;-84
2022/04/08 07:00:34;;;;;;;10.65;2.03;;;;;;;;;;5087944;28;20534;-83
2022/04/08 07:03:00;;;;;;;7.60;1.77;;;;;;;;;;5087318;28;20034;-86
2022/04/08 07:05:26;;;;;;;8.55;2.00;;;;;;;;;;5080083;28;20040;-83
2022/04/08 07:07:55;;;;;;;8.55;1.83;;;;;;;;;;5069409;28;20044;-88
2022/04/08 07:10:21;;;;;;;6.75;2.20;;;;;;;;;;5086146;28;20051;-86
2022/04/08 07:12:47;;;;;;;7.25;2.30;;;;;;;;;;5069107;28;20121;-85
2022/04/08 07:15:13;;;;;;;12.13;2.17;;;;;;;;;;5086953;28;20113;-85
2022/04/08 07:17:40;;;;;;;8.18;2.25;;;;;;;;;;5087376;28;20416;-84
2022/04/08 07:20:10;;;;;;;9.10;2.67;;;;;;;;;;5083493;28;20059;-84
2022/04/08 07:22:37;;;;;;;7.90;2.03;;;;;;;;;;5085626;28;20044;-84
2022/04/08 07:25:03;;;;;;;11.00;2.33;;;;;;;;;;5081121;28;20040;-83
2022/04/08 07:27:29;;;;;;;13.98;2.55;;;;;;;;;;5079557;28;20085;-84
2022/04/08 07:29:55;;;;;;;14.02;3.50;;;;;;;;;;5082257;28;20033;-82
2022/04/08 07:32:21;;;;;;;13.15;3.80;;;;;;;;;;5084746;28;20048;-83
2022/04/08 07:34:49;;;;;;;10.40;2.60;;;;;;;;;;5087492;28;20570;-83
2022/04/08 07:37:15;;;;;;;10.57;2.58;;;;;;;;;;5089159;28;20040;-84
2022/04/08 07:39:42;;;;;;;12.35;2.92;;;;;;;;;;5089803;28;20036;-85
2022/04/08 07:42:09;;;;;;;10.27;3.15;;;;;;;;;;5072987;28;20056;-84
2022/04/08 07:44:41;;;;;;;12.95;2.80;;;;;;;;;;5092280;28;20028;-83
2022/04/08 07:47:09;;;;;;;9.85;2.58;;;;;;;;;;5103478;28;20058;-85
2022/04/08 07:49:35;;;;;;;10.25;2.80;;;;;;;;;;5105441;28;20065;-83
2022/04/08 07:52:02;;;;;;;14.25;3.50;;;;;;;;;;5092309;28;20032;-84
2022/04/08 07:54:28;;;;;;;13.98;3.50;;;;;;;;;;5090599;28;20478;-82
2022/04/08 07:56:54;;;;;;;13.75;2.78;;;;;;;;;;5088926;28;20044;-83
2022/04/08 07:59:20;;;;;;;17.67;3.30;;;;;;;;;;5087730;28;20568;-84
2022/04/08 08:01:48;;;;;;;13.05;3.00;;;;;;;;;;5067938;28;20042;-82
2022/04/08 08:04:14;;;;;;;12.00;2.58;;;;;;;;;;5071609;28;20056;-82
2022/04/08 08:06:40;;;;;;;11.85;2.78;;;;;;;;;;5087687;28;20454;-87
2022/04/08 08:09:06;;;;;;;10.60;3.00;;;;;;;;;;5089167;28;20068;-85
2022/04/08 08:11:32;;;;;;;10.60;2.13;;;;;;;;;;5069234;28;20101;-83
2022/04/08 08:13:59;;;;;;;12.77;2.85;;;;;;;;;;5071841;28;20093;-82
2022/04/08 08:16:25;;;;;;;14.38;2.95;;;;;;;;;;5068623;28;20414;-84
2022/04/08 08:18:56;;;;;;;12.82;3.15;;;;;;;;;;5067006;28;20471;-84
2022/04/08 08:21:22;;;;;;;12.13;2.72;;;;;;;;;;5086917;28;20101;-84
2022/04/08 08:23:48;;;;;;;12.90;2.95;;;;;;;;;;5087028;28;20032;-82
2022/04/08 08:26:14;;;;;;;8.60;2.47;;;;;;;;;;5087582;28;20043;-80
2022/04/08 08:28:42;;;;;;;8.15;2.13;;;;;;;;;;5068452;28;20131;-79
2022/04/08 08:31:08;;;;;;;15.20;4.18;;;;;;;;;;5068343;28;20102;-82
2022/04/08 08:33:34;;;;;;;17.88;2.05;;;;;;;;;;5068305;28;20040;-79
2022/04/08 08:36:00;;;;;;;15.23;2.70;;;;;;;;;;5068828;28;20050;-78
2022/04/08 08:38:26;;;;;;;13.07;3.60;;;;;;;;;;5086442;28;20075;-80
2022/04/08 08:40:53;;;;;;;12.57;2.78;;;;;;;;;;5067569;28;20452;-79
2022/04/08 08:43:20;;;;;;;9.48;1.90;;;;;;;;;;5052439;28;20124;-80
2022/04/08 08:45:47;;;;;;;7.57;1.83;;;;;;;;;;5086728;28;20574;-82
2022/04/08 08:48:15;;;;;;;12.10;1.75;;;;;;;;;;5087887;28;20048;-79
2022/04/08 08:50:45;;;;;;;7.85;1.75;;;;;;;;;;5089027;28;20114;-80
2022/04/08 08:53:12;;;;;;;9.07;2.22;;;;;;;;;;5089487;28;20040;-80
2022/04/08 08:55:38;;;;;;;17.77;1.88;;;;;;;;;;5067595;28;20044;-80
2022/04/08 08:58:04;;;;;;;11.75;1.75;;;;;;;;;;5068285;28;20070;-79
2022/04/08 09:00:30;;;;;;;11.82;1.85;;;;;;;;;;5068164;28;20127;-79
2022/04/08 09:02:56;;;;;;;10.45;1.45;;;;;;;;;;5085997;28;20079;-79
2022/04/08 09:05:25;;;;;;;11.13;2.30;;;;;;;;;;5071103;28;20051;-78
2022/04/08 09:07:59;;;;;;;6.28;1.85;;;;;;;;;;5087013;28;20127;-80
2022/04/08 09:10:48;;;;;;;9.10;2.08;;;;;;;;;;5087435;28;20071;-79
2022/04/08 09:13:19;;;;;;;14.07;1.70;;;;;;;;;;5068359;28;20471;-79
2022/04/08 09:15:54;;;;;;;10.98;1.85;;;;;;;;;;5062766;28;20072;-80
2022/04/08 09:18:20;;;;;;;8.02;1.73;;;;;;;;;;5065102;28;20127;-80
2022/04/08 09:20:50;;;;;;;3.58;1.02;;;;;;;;;;5065087;28;20036;-80
2022/04/08 09:23:17;;;;;;;8.27;1.35;;;;;;;;;;5064972;28;20051;-80
2022/04/08 09:25:44;;;;;;;10.68;1.38;;;;;;;;;;5064084;28;20043;-80
2022/04/08 09:28:11;;;;;;;10.48;2.20;;;;;;;;;;5062824;28;20040;-79
2022/04/08 09:30:37;;;;;;;2.75;1.10;;;;;;;;;;5065549;28;20044;-81
2022/04/08 09:33:16;;;;;;;4.32;1.13;;;;;;;;;;5065456;28;20072;-80
2022/04/08 09:35:43;;;;;;;6.45;1.58;;;;;;;;;;5064651;28;20097;-81
2022/04/08 09:38:09;;;;;;;5.22;1.23;;;;;;;;;;5065509;28;20040;-79
2022/04/08 09:40:36;;;;;;;2.42;1.60;;;;;;;;;;5066034;28;20048;-79
2022/04/08 09:43:02;;;;;;;7.35;1.80;;;;;;;;;;5065726;28;20528;-79
2022/04/08 09:45:32;;;;;;;6.65;1.83;;;;;;;;;;5063736;28;20058;-80
2022/04/08 09:47:58;;;;;;;8.50;1.88;;;;;;;;;;5064701;28;20131;-78
2022/04/08 09:50:26;;;;;;;10.25;2.63;;;;;;;;;;5065443;28;20599;-79
2022/04/08 09:52:53;;;;;;;6.35;1.10;;;;;;;;;;5065265;28;20055;-79
2022/04/08 09:55:19;;;;;;;6.38;1.90;;;;;;;;;;5066026;28;20040;-80
2022/04/08 09:57:46;;;;;;;2.05;0.93;;;;;;;;;;5078714;28;20041;-81
2022/04/08 10:00:13;;;;;;;6.97;0.80;;;;;;;;;;5074909;28;20069;-83
2022/04/08 10:02:40;;;;;;;13.60;1.83;;;;;;;;;;5075890;28;20064;-83
2022/04/08 10:05:07;;;;;;;4.63;1.35;;;;;;;;;;5080215;28;20037;-84
2022/04/08 10:07:34;;;;;;;7.97;1.70;;;;;;;;;;5082932;28;20110;-82
2022/04/08 10:10:05;;;;;;;8.65;1.27;;;;;;;;;;5065489;28;20076;-82
2022/04/08 10:12:40;;;;;;;3.88;1.23;;;;;;;;;;5066391;28;20051;-82
2022/04/08 10:15:12;;;;;;;4.03;0.93;;;;;;;;;;5067573;28;20770;-82
2022/04/08 10:17:38;;;;;;;5.30;1.10;;;;;;;;;;5067108;28;20120;-82
2022/04/08 10:20:17;;;;;;;6.45;1.25;;;;;;;;;;5048454;28;20473;-80
2022/04/08 10:22:43;;;;;;;8.48;1.42;;;;;;;;;;5065340;28;21325;-79
2022/04/08 10:25:16;;;;;;;5.53;0.82;;;;;;;;;;5048181;28;20559;-78
2022/04/08 10:27:43;;;;;;;9.15;2.33;;;;;;;;;;5047389;28;20526;-80
2022/04/08 10:30:14;;;;;;;8.82;1.67;;;;;;;;;;5064578;28;20540;-80
2022/04/08 10:32:40;;;;;;;5.10;1.02;;;;;;;;;;5030251;28;20048;-81
2022/04/08 10:35:16;;;;;;;8.15;1.75;;;;;;;;;;5046519;28;20051;-81
2022/04/08 10:37:42;;;;;;;8.90;1.30;;;;;;;;;;5065030;28;20060;-82
2022/04/08 10:40:11;;;;;;;7.60;1.55;;;;;;;;;;5065275;28;20039;-81
2022/04/08 10:42:37;;;;;;;7.53;1.30;;;;;;;;;;5064694;28;20076;-82
2022/04/08 10:45:13;;;;;;;4.63;0.95;;;;;;;;;;5065426;28;20037;-82
2022/04/08 10:47:49;;;;;;;4.10;1.23;;;;;;;;;;5062777;28;20048;-82
2022/04/08 10:50:25;;;;;;;5.70;1.45;;;;;;;;;;5047375;28;20396;-79
2022/04/08 10:53:02;;;;;;;9.15;1.75;;;;;;;;;;5064313;28;20049;-80
2022/04/08 10:55:28;;;;;;;3.95;1.27;;;;;;;;;;5030130;28;20105;-83
2022/04/08 10:57:57;;;;;;;4.18;1.35;;;;;;;;;;5047223;28;20072;-80
2022/04/08 11:00:25;;;;;;;5.43;1.38;;;;;;;;;;5046335;28;20051;-83
2022/04/08 11:02:53;;;;;;;9.50;1.83;;;;;;;;;;5031154;28;20072;-80
2022/04/08 11:05:20;;;;;;;10.80;1.92;;;;;;;;;;5044113;28;20048;-81
2022/04/08 11:07:53;;;;;;;4.07;1.38;;;;;;;;;;5065630;28;20056;-79
2022/04/08 11:10:20;;;;;;;4.03;1.05;;;;;;;;;;5046720;28;20551;-82
2022/04/08 11:12:47;;;;;;;3.97;1.55;;;;;;;;;;5047762;28;20123;-82
2022/04/08 11:15:15;;;;;;;5.30;1.33;;;;;;;;;;5078354;28;20070;-82
2022/04/08 11:17:42;;;;;;;9.18;1.88;;;;;;;;;;5086748;28;20138;-82
2022/04/08 11:20:11;;;;;;;8.77;1.30;;;;;;;;;;5070518;28;20044;-80
2022/04/08 11:22:41;;;;;;;4.55;1.10;;;;;;;;;;5069635;28;20113;-80
2022/04/08 11:25:08;;;;;;;11.95;1.65;;;;;;;;;;5088802;28;20055;-80
2022/04/08 11:27:34;;;;;;;4.00;1.13;;;;;;;;;;5069245;28;20157;-80
2022/04/08 11:30:02;;;;;;;2.85;0.93;;;;;;;;;;5053962;28;20052;-81
2022/04/08 11:32:31;;;;;;;1.48;0.70;;;;;;;;;;5052532;28;20052;-80
2022/04/08 11:34:57;;;;;;;6.43;1.42;;;;;;;;;;5069051;28;20044;-82
2022/04/08 11:37:27;;;;;;;7.72;1.40;;;;;;;;;;5069983;28;20040;-80
2022/04/08 11:39:57;;;;;;;8.40;1.30;;;;;;;;;;5052613;28;20033;-79
2022/04/08 11:42:23;;;;;;;10.07;1.52;;;;;;;;;;5088495;28;20482;-81
2022/04/08 11:44:49;;;;;;;7.93;1.40;;;;;;;;;;5087610;28;20040;-80
2022/04/08 11:47:17;;;;;;;10.15;1.73;;;;;;;;;;5088698;28;20067;-78
2022/04/08 11:49:44;;;;;;;7.68;1.17;;;;;;;;;;5072040;28;20052;-81
2022/04/08 11:52:10;;;;;;;7.32;1.40;;;;;;;;;;5089539;28;20550;-83
2022/04/08 11:54:37;;;;;;;9.57;1.65;;;;;;;;;;5055777;28;20044;-82
2022/04/08 11:57:05;;;;;;;3.92;0.90;;;;;;;;;;5090660;28;20040;-80
2022/04/08 11:59:32;;;;;;;7.57;1.52;;;;;;;;;;5073242;28;20113;-81
2022/04/08 12:02:00;;;;;;;7.22;0.95;;;;;;;;;;5060728;28;20158;-82
2022/04/08 12:04:26;;;;;;;7.78;1.60;;;;;;;;;;5071122;28;20036;-81
2022/04/08 12:06:52;;;;;;;12.60;2.65;;;;;;;;;;5071284;28;20496;-79
2022/04/08 12:09:22;;;;;;;5.38;1.15;;;;;;;;;;5090662;28;20067;-83
2022/04/08 12:11:49;;;;;;;9.63;1.25;;;;;;;;;;5104533;28;20089;-81
2022/04/08 12:14:15;;;;;;;6.47;1.33;;;;;;;;;;5107484;28;20051;-79
2022/04/08 12:16:42;;;;;;;6.20;1.27;;;;;;;;;;5100191;28;20460;-79
2022/04/08 12:19:08;;;;;;;7.97;1.40;;;;;;;;;;5090819;28;20390;-79
2022/04/08 12:21:35;;;;;;;7.47;1.30;;;;;;;;;;5079297;28;20083;-79
2022/04/08 12:24:02;;;;;;;10.30;1.42;;;;;;;;;;5068628;28;20172;-80
2022/04/08 12:26:29;;;;;;;5.03;1.27;;;;;;;;;;5087716;28;20549;-79
2022/04/08 12:29:07;;;;;;;8.40;1.10;;;;;;;;;;5069079;28;20430;-79
2022/04/08 12:31:33;;;;;;;7.95;1.85;;;;;;;;;;5083930;28;20066;-80
2022/04/08 12:34:02;;;;;;;7.90;0.98;;;;;;;;;;5088106;28;20038;-80
2022/04/08 12:36:28;;;;;;;8.73;1.48;;;;;;;;;;5068343;28;20048;-80
2022/04/08 12:38:54;;;;;;;5.95;1.65;;;;;;;;;;5087626;28;20044;-79
2022/04/08 12:41:20;;;;;;;6.75;1.10;;;;;;;;;;5068437;28;20032;-79
2022/04/08 12:43:46;;;;;;;7.72;1.08;;;;;;;;;;5087277;28;20094;-79
2022/04/08 12:46:13;;;;;;;8.20;1.27;;;;;;;;;;5086065;28;20044;-77
2022/04/08 12:48:39;;;;;;;8.52;1.20;;;;;;;;;;5086545;28;20083;-79
2022/04/08 12:51:08;;;;;;;4.88;1.52;;;;;;;;;;5069649;28;20377;-80
2022/04/08 12:53:35;;;;;;;5.35;1.20;;;;;;;;;;5085927;28;20036;-80
2022/04/08 12:56:01;;;;;;;5.47;1.38;;;;;;;;;;5087115;28;20139;-79
2022/04/08 12:58:27;;;;;;;6.78;1.23;;;;;;;;;;5050663;28;20051;-81
2022/04/08 13:00:54;;;;;;;6.55;1.17;;;;;;;;;;5070268;28;20127;-80
2022/04/08 13:03:20;;;;;;;5.50;1.38;;;;;;;;;;5089659;28;20048;-82
2022/04/08 13:05:46;;;;;;;4.18;1.23;;;;;;;;;;5097441;28;20074;-83
2022/04/08 13:08:12;;;;;;;6.15;1.25;;;;;;;;;;5070558;28;20137;-79
2022/04/08 13:10:39;;;;;;;4.78;1.00;;;;;;;;;;5067977;28;20048;-80
2022/04/08 13:13:05;;;;;;;4.80;1.17;;;;;;;;;;5086893;28;20040;-80
2022/04/08 13:15:31;;;;;;;10.80;1.30;;;;;;;;;;5050149;28;20194;-81
2022/04/08 13:17:58;;;;;;;6.97;1.50;;;;;;;;;;5050657;28;20055;-80
2022/04/08 13:20:24;;;;;;;6.07;0.90;;;;;;;;;;5067881;28;20044;-82
2022/04/08 13:22:50;;;;;;;10.07;1.58;;;;;;;;;;5067301;28;20180;-79
2022/04/08 13:25:16;;;;;;;6.22;0.98;;;;;;;;;;5032001;28;20044;-80
2022/04/08 13:27:42;;;;;;;7.28;1.13;;;;;;;;;;5049304;28;20040;-79
2022/04/08 13:30:09;;;;;;;5.13;1.15;;;;;;;;;;5067791;28;20066;-80
2022/04/08 13:32:38;;;;;;;4.97;1.08;;;;;;;;;;5066815;28;20142;-80
2022/04/08 13:35:07;;;;;;;5.30;1.10;;;;;;;;;;5067948;28;20048;-79
2022/04/08 13:37:35;;;;;;;10.15;1.77;;;;;;;;;;5057262;28;20482;-80
2022/04/08 13:40:02;;;;;;;4.97;1.30;;;;;;;;;;5088206;28;20040;-80
2022/04/08 13:42:28;;;;;;;6.78;1.48;;;;;;;;;;5067774;28;20446;-81
2022/04/08 13:44:55;;;;;;;6.05;1.40;;;;;;;;;;5088681;28;20040;-83
2022/04/08 13:47:21;;;;;;;7.00;1.50;;;;;;;;;;5069647;28;20498;-82
2022/04/08 13:49:47;;;;;;;8.38;1.77;;;;;;;;;;5069651;28;20036;-84
2022/04/08 13:52:13;;;;;;;14.00;1.50;;;;;;;;;;5088358;28;20044;-83
2022/04/08 13:54:39;;;;;;;7.22;1.40;;;;;;;;;;5069565;28;20047;-82
2022/04/08 13:57:06;;;;;;;6.72;2.35;;;;;;;;;;5072317;28;20103;-80
2022/04/08 13:59:33;;;;;;;8.13;1.50;;;;;;;;;;5072109;28;20048;-83
2022/04/08 14:01:59;;;;;;;6.22;1.00;;;;;;;;;;5056435;28;20044;-81
2022/04/08 14:04:25;;;;;;;5.68;1.38;;;;;;;;;;5071377;28;20036;-84
2022/04/08 14:06:52;;;;;;;6.05;1.10;;;;;;;;;;5071286;28;20056;-83
2022/04/08 14:09:19;;;;;;;5.97;0.95;;;;;;;;;;5062905;28;20114;-83
2022/04/08 14:11:46;;;;;;;4.55;0.90;;;;;;;;;;5070836;28;20036;-80
2022/04/08 14:14:12;;;;;;;5.70;1.42;;;;;;;;;;5073593;28;20085;-81
2022/04/08 14:16:39;;;;;;;7.13;1.17;;;;;;;;;;5088436;28;20052;-80
2022/04/08 14:19:05;;;;;;;9.20;1.60;;;;;;;;;;5050229;28;20048;-83
2022/04/08 14:21:31;;;;;;;11.43;1.63;;;;;;;;;;5076653;28;20034;-79
2022/04/08 14:24:06;;;;;;;6.50;1.30;;;;;;;;;;5045954;28;20448;-81
2022/04/08 14:26:33;;;;;;;10.00;1.40;;;;;;;;;;5062379;28;20032;-81
2022/04/08 14:28:59;;;;;;;4.75;1.73;;;;;;;;;;5106440;28;20055;-83
2022/04/08 14:31:25;;;;;;;5.13;1.45;;;;;;;;;;5079080;28;20036;-81
2022/04/08 14:33:52;;;;;;;5.38;1.20;;;;;;;;;;5082483;28;20073;-81
2022/04/08 14:36:18;;;;;;;6.57;1.33;;;;;;;;;;5082293;28;20032;-82
2022/04/08 14:38:44;;;;;;;6.15;1.48;;;;;;;;;;5049765;28;20169;-83